Time;durP1;ratioP1;P1;durP2;ratioP2;P2;SDS_P1;SDS_P2;PMS_P1;PMS_P2;Temp;Humidity;BMP_temperature;BMP_pressure;BME280_temperature;BME280_humidity;BME280_pressure;Samples;Min_cycle;Max_cycle;Signal;HPM_P1;HPM_P2
2021/05/04 00:00:56;;;;;;;8.02;5.20;;;;;;;;;;3617161;39;20051;-55
2021/05/04 00:03:21;;;;;;;7.68;5.13;;;;;;;;;;3616848;39;20054;-54
2021/05/04 00:05:46;;;;;;;10.32;5.22;;;;;;;;;;3617003;39;20432;-53
2021/05/04 00:08:12;;;;;;;13.25;5.40;;;;;;;;;;3616810;39;20060;-54
2021/05/04 00:10:37;;;;;;;7.22;4.63;;;;;;;;;;3616595;39;20128;-56
2021/05/04 00:13:03;;;;;;;6.93;5.03;;;;;;;;;;3616473;39;20034;-54
2021/05/04 00:15:28;;;;;;;7.93;4.88;;;;;;;;;;3616570;39;20050;-54
2021/05/04 00:17:54;;;;;;;7.60;4.78;;;;;;;;;;3616647;39;20031;-52
2021/05/04 00:20:19;;;;;;;7.10;4.32;;;;;;;;;;3616734;39;20060;-56
2021/05/04 00:22:45;;;;;;;9.10;4.70;;;;;;;;;;3616659;39;20051;-55
2021/05/04 00:25:10;;;;;;;9.30;4.45;;;;;;;;;;3616829;39;20039;-52
2021/05/04 00:27:36;;;;;;;7.47;4.50;;;;;;;;;;3616484;39;20309;-53
2021/05/04 00:30:02;;;;;;;8.68;4.38;;;;;;;;;;3617313;39;20031;-55
2021/05/04 00:32:28;;;;;;;5.82;4.30;;;;;;;;;;3618335;39;20028;-55
2021/05/04 00:34:53;;;;;;;7.50;5.10;;;;;;;;;;3618245;39;20035;-55
2021/05/04 00:37:19;;;;;;;7.22;4.30;;;;;;;;;;3618425;39;20043;-56
2021/05/04 00:39:44;;;;;;;8.32;4.53;;;;;;;;;;3617078;39;20051;-53
2021/05/04 00:42:09;;;;;;;5.53;3.65;;;;;;;;;;3618264;39;20031;-54
2021/05/04 00:44:35;;;;;;;6.97;4.30;;;;;;;;;;3617975;39;20050;-52
2021/05/04 00:47:00;;;;;;;7.32;4.15;;;;;;;;;;3617557;39;20039;-54
2021/05/04 00:49:26;;;;;;;8.20;4.00;;;;;;;;;;3618695;39;20030;-56
2021/05/04 00:51:52;;;;;;;6.35;3.90;;;;;;;;;;3618000;39;20134;-55
2021/05/04 00:54:18;;;;;;;6.95;3.83;;;;;;;;;;3617861;39;20034;-54
2021/05/04 00:56:44;;;;;;;10.75;4.70;;;;;;;;;;3618083;39;20051;-54
2021/05/04 00:59:11;;;;;;;6.35;3.63;;;;;;;;;;3617896;39;20309;-56
2021/05/04 01:01:37;;;;;;;5.57;3.33;;;;;;;;;;3617779;39;20038;-55
2021/05/04 01:04:03;;;;;;;12.35;4.25;;;;;;;;;;3617486;39;20036;-55
2021/05/04 01:06:28;;;;;;;6.60;4.25;;;;;;;;;;3617753;39;20137;-56
2021/05/04 01:08:54;;;;;;;5.85;3.35;;;;;;;;;;3617779;39;20335;-54
2021/05/04 01:11:19;;;;;;;6.15;3.90;;;;;;;;;;3617868;39;20034;-56
2021/05/04 01:13:51;;;;;;;6.40;4.25;;;;;;;;;;3617292;39;20752;-56
2021/05/04 01:16:16;;;;;;;5.80;4.07;;;;;;;;;;3616674;39;20370;-53
2021/05/04 01:18:42;;;;;;;5.35;3.28;;;;;;;;;;3617863;39;20072;-54
2021/05/04 01:21:07;;;;;;;6.20;4.60;;;;;;;;;;3617564;39;20930;-56
2021/05/04 01:23:35;;;;;;;5.35;3.95;;;;;;;;;;3617842;39;20075;-56
2021/05/04 01:26:01;;;;;;;11.13;4.10;;;;;;;;;;3617706;39;20043;-53
2021/05/04 01:28:26;;;;;;;9.35;3.65;;;;;;;;;;3617623;39;20054;-54
2021/05/04 01:30:51;;;;;;;7.20;4.18;;;;;;;;;;3616558;39;20078;-52
2021/05/04 01:33:17;;;;;;;5.78;3.83;;;;;;;;;;3617751;39;20031;-55
2021/05/04 01:35:42;;;;;;;6.70;3.95;;;;;;;;;;3617752;39;20035;-55
2021/05/04 01:38:07;;;;;;;7.70;3.60;;;;;;;;;;3616913;39;20046;-54
2021/05/04 01:40:33;;;;;;;6.75;3.92;;;;;;;;;;3617114;39;20645;-55
2021/05/04 01:42:58;;;;;;;6.97;4.15;;;;;;;;;;3617608;39;20156;-54
2021/05/04 01:45:24;;;;;;;5.72;3.38;;;;;;;;;;3618145;39;20112;-55
2021/05/04 01:47:49;;;;;;;8.43;3.50;;;;;;;;;;3617344;39;20031;-51
2021/05/04 01:50:15;;;;;;;6.43;3.90;;;;;;;;;;3617779;39;20042;-53
2021/05/04 01:52:40;;;;;;;5.63;3.55;;;;;;;;;;3617548;39;20034;-51
2021/05/04 01:55:07;;;;;;;5.97;3.50;;;;;;;;;;3617172;39;20043;-54
2021/05/04 01:57:32;;;;;;;9.63;3.78;;;;;;;;;;3617397;39;20059;-56
2021/05/04 01:59:58;;;;;;;10.15;4.07;;;;;;;;;;3617130;39;20262;-56
2021/05/04 02:02:23;;;;;;;7.25;3.85;;;;;;;;;;3617090;39;20298;-54
2021/05/04 02:04:49;;;;;;;6.00;3.50;;;;;;;;;;3617886;39;20030;-56
2021/05/04 02:07:14;;;;;;;4.97;3.45;;;;;;;;;;3617589;39;20047;-55
2021/05/04 02:09:39;;;;;;;8.32;4.10;;;;;;;;;;3617145;39;20328;-53
2021/05/04 02:12:05;;;;;;;5.55;3.30;;;;;;;;;;3617827;39;20841;-55
2021/05/04 02:14:30;;;;;;;5.38;2.95;;;;;;;;;;3617379;39;20052;-55
2021/05/04 02:16:56;;;;;;;12.18;3.97;;;;;;;;;;3617417;39;20046;-53
2021/05/04 02:19:21;;;;;;;7.05;3.88;;;;;;;;;;3616151;39;20027;-54
2021/05/04 02:21:46;;;;;;;6.10;3.58;;;;;;;;;;3617781;39;20386;-55
2021/05/04 02:24:12;;;;;;;5.90;3.15;;;;;;;;;;3617382;39;20143;-54
2021/05/04 02:26:37;;;;;;;10.07;3.65;;;;;;;;;;3616486;39;20387;-56
2021/05/04 02:29:03;;;;;;;7.10;3.05;;;;;;;;;;3616738;39;20032;-56
2021/05/04 02:31:28;;;;;;;12.75;4.00;;;;;;;;;;3617312;39;20517;-54
2021/05/04 02:33:53;;;;;;;5.63;3.45;;;;;;;;;;3614532;39;20051;-54
2021/05/04 02:36:19;;;;;;;7.72;3.28;;;;;;;;;;3616893;39;20275;-55
2021/05/04 02:38:44;;;;;;;5.60;3.30;;;;;;;;;;3617130;39;20112;-56
2021/05/04 02:41:10;;;;;;;5.18;3.70;;;;;;;;;;3617519;39;20072;-55
2021/05/04 02:43:36;;;;;;;7.32;3.33;;;;;;;;;;3617098;39;20035;-55
2021/05/04 02:46:02;;;;;;;6.30;3.78;;;;;;;;;;3616879;39;20023;-53
2021/05/04 02:48:28;;;;;;;10.32;3.58;;;;;;;;;;3616952;39;20034;-56
2021/05/04 02:50:54;;;;;;;6.95;3.15;;;;;;;;;;3617193;39;20031;-55
2021/05/04 02:53:19;;;;;;;4.88;2.80;;;;;;;;;;3617071;39;20128;-55
2021/05/04 02:55:45;;;;;;;9.02;3.58;;;;;;;;;;3607314;39;20055;-53
2021/05/04 02:58:12;;;;;;;5.43;3.25;;;;;;;;;;3617086;39;20462;-54
2021/05/04 03:00:37;;;;;;;6.55;3.40;;;;;;;;;;3617198;39;20058;-56
2021/05/04 03:03:03;;;;;;;4.88;2.95;;;;;;;;;;3616684;39;20031;-55
2021/05/04 03:05:28;;;;;;;6.07;3.00;;;;;;;;;;3616908;39;20031;-54
2021/05/04 03:07:54;;;;;;;5.30;3.00;;;;;;;;;;3617187;39;20031;-55
2021/05/04 03:10:19;;;;;;;9.00;3.00;;;;;;;;;;3617303;39;20039;-54
2021/05/04 03:12:44;;;;;;;6.50;3.65;;;;;;;;;;3616965;39;20046;-55
2021/05/04 03:15:11;;;;;;;6.10;3.20;;;;;;;;;;3617306;39;20416;-55
2021/05/04 03:17:36;;;;;;;5.57;3.17;;;;;;;;;;3616739;39;20097;-53
2021/05/04 03:20:03;;;;;;;4.30;3.00;;;;;;;;;;3617116;39;20100;-55
2021/05/04 03:22:28;;;;;;;6.20;3.42;;;;;;;;;;3616749;39;20394;-56
2021/05/04 03:24:54;;;;;;;6.20;3.28;;;;;;;;;;3617266;39;20076;-56
2021/05/04 03:27:19;;;;;;;5.38;3.25;;;;;;;;;;3617161;39;20042;-55
2021/05/04 03:29:44;;;;;;;8.43;3.03;;;;;;;;;;3615546;39;20259;-53
2021/05/04 03:32:10;;;;;;;11.77;3.35;;;;;;;;;;3616896;39;20051;-52
2021/05/04 03:34:35;;;;;;;4.40;3.00;;;;;;;;;;3617014;39;20035;-57
2021/05/04 03:37:01;;;;;;;5.40;3.33;;;;;;;;;;3616403;39;20035;-56
2021/05/04 03:39:27;;;;;;;5.00;3.30;;;;;;;;;;3616969;39;20035;-56
2021/05/04 03:41:52;;;;;;;5.97;3.35;;;;;;;;;;3617047;39;20359;-57
2021/05/04 03:44:17;;;;;;;5.05;2.83;;;;;;;;;;3617021;39;20125;-53
2021/05/04 03:46:43;;;;;;;5.28;2.90;;;;;;;;;;3616031;39;20127;-55
2021/05/04 03:49:09;;;;;;;6.32;3.17;;;;;;;;;;3616817;39;20054;-56
2021/05/04 03:51:35;;;;;;;5.95;3.20;;;;;;;;;;3617301;39;20023;-56
2021/05/04 03:54:00;;;;;;;10.95;4.10;;;;;;;;;;3616149;39;20034;-57
2021/05/04 03:56:26;;;;;;;7.05;3.30;;;;;;;;;;3616768;39;20551;-54
2021/05/04 03:58:51;;;;;;;8.50;3.30;;;;;;;;;;3616624;39;20035;-57
2021/05/04 04:01:16;;;;;;;4.70;2.97;;;;;;;;;;3616833;39;20047;-54
2021/05/04 04:03:42;;;;;;;8.50;3.42;;;;;;;;;;3615751;39;20393;-56
2021/05/04 04:06:07;;;;;;;9.57;3.83;;;;;;;;;;3616723;39;20119;-57
2021/05/04 04:08:33;;;;;;;8.82;3.33;;;;;;;;;;3616542;39;20039;-56
2021/05/04 04:10:58;;;;;;;6.93;2.97;;;;;;;;;;3617030;39;20047;-57
2021/05/04 04:13:24;;;;;;;7.05;3.00;;;;;;;;;;3615594;39;20151;-57
2021/05/04 04:15:49;;;;;;;13.35;4.15;;;;;;;;;;3616620;39;20030;-55
2021/05/04 04:18:14;;;;;;;5.25;2.85;;;;;;;;;;3615586;39;20039;-57
2021/05/04 04:20:40;;;;;;;7.47;3.17;;;;;;;;;;3615670;39;20347;-57
2021/05/04 04:23:05;;;;;;;14.07;3.38;;;;;;;;;;3616848;39;20036;-56
2021/05/04 04:25:31;;;;;;;7.22;3.15;;;;;;;;;;3616464;39;20082;-57
2021/05/04 04:27:56;;;;;;;6.38;3.05;;;;;;;;;;3616250;39;20054;-57
2021/05/04 04:30:24;;;;;;;14.68;3.20;;;;;;;;;;3615759;39;20034;-55
2021/05/04 04:32:50;;;;;;;9.18;3.65;;;;;;;;;;3617133;39;20462;-55
2021/05/04 04:35:15;;;;;;;7.45;3.05;;;;;;;;;;3616404;39;20035;-53
2021/05/04 04:37:41;;;;;;;12.35;3.15;;;;;;;;;;3615399;39;20386;-53
2021/05/04 04:40:08;;;;;;;10.60;3.20;;;;;;;;;;3616424;39;20039;-56
2021/05/04 04:42:34;;;;;;;13.32;4.00;;;;;;;;;;3616402;39;20043;-55
2021/05/04 04:45:00;;;;;;;5.18;3.35;;;;;;;;;;3615294;39;20054;-55
2021/05/04 04:47:25;;;;;;;11.13;3.50;;;;;;;;;;3615690;39;20040;-55
2021/05/04 04:49:50;;;;;;;11.95;3.20;;;;;;;;;;3616346;39;20417;-55
2021/05/04 04:52:16;;;;;;;5.97;3.63;;;;;;;;;;3616705;39;20031;-56
2021/05/04 04:54:42;;;;;;;8.30;3.22;;;;;;;;;;3616187;39;20023;-55
2021/05/04 04:57:07;;;;;;;14.18;3.65;;;;;;;;;;3604762;39;20135;-56
2021/05/04 04:59:33;;;;;;;6.20;3.58;;;;;;;;;;3616344;39;20046;-53
2021/05/04 05:01:59;;;;;;;4.63;2.67;;;;;;;;;;3616102;39;20031;-55
2021/05/04 05:04:25;;;;;;;10.23;3.50;;;;;;;;;;3616339;39;20031;-56
2021/05/04 05:06:50;;;;;;;6.35;3.60;;;;;;;;;;3606229;39;20035;-55
2021/05/04 05:09:16;;;;;;;11.55;3.22;;;;;;;;;;3616000;39;20064;-56
2021/05/04 05:11:41;;;;;;;7.53;3.28;;;;;;;;;;3616036;39;20123;-57
2021/05/04 05:14:08;;;;;;;7.75;4.05;;;;;;;;;;3615848;39;20115;-56
2021/05/04 05:16:36;;;;;;;8.77;3.47;;;;;;;;;;3616327;39;20039;-57
2021/05/04 05:19:02;;;;;;;6.63;3.20;;;;;;;;;;3615991;39;20034;-56
2021/05/04 05:21:30;;;;;;;12.75;3.45;;;;;;;;;;3617791;39;20236;-55
2021/05/04 05:23:56;;;;;;;9.43;3.38;;;;;;;;;;3617820;39;20274;-55
2021/05/04 05:26:21;;;;;;;6.68;2.83;;;;;;;;;;3617566;39;20035;-56
2021/05/04 05:28:46;;;;;;;5.97;3.60;;;;;;;;;;3617462;39;20091;-55
2021/05/04 05:31:12;;;;;;;6.05;3.50;;;;;;;;;;3617940;39;20443;-54
2021/05/04 05:33:38;;;;;;;6.47;3.30;;;;;;;;;;3617537;39;20047;-55
2021/05/04 05:36:04;;;;;;;8.50;3.45;;;;;;;;;;3607431;39;20039;-56
2021/05/04 05:38:30;;;;;;;8.00;3.22;;;;;;;;;;3617356;39;20049;-56
2021/05/04 05:40:57;;;;;;;4.22;2.80;;;;;;;;;;3617125;39;20339;-57
2021/05/04 05:43:23;;;;;;;4.60;3.05;;;;;;;;;;3617007;39;20066;-57
2021/05/04 05:45:49;;;;;;;5.85;2.85;;;;;;;;;;3614780;39;20038;-56
2021/05/04 05:48:15;;;;;;;5.45;3.15;;;;;;;;;;3617679;39;20038;-56
2021/05/04 05:50:41;;;;;;;9.18;3.17;;;;;;;;;;3617443;39;20028;-56
2021/05/04 05:53:06;;;;;;;6.00;3.05;;;;;;;;;;3617560;39;20545;-55
2021/05/04 05:55:32;;;;;;;6.20;3.10;;;;;;;;;;3616521;39;20053;-53
2021/05/04 05:57:58;;;;;;;10.55;3.30;;;;;;;;;;3615401;39;20051;-54
2021/05/04 06:00:25;;;;;;;7.28;3.22;;;;;;;;;;3617481;39;20043;-53
2021/05/04 06:02:50;;;;;;;5.32;3.20;;;;;;;;;;3617740;39;20031;-57
2021/05/04 06:05:16;;;;;;;8.05;3.40;;;;;;;;;;3617859;39;20290;-57
2021/05/04 06:07:41;;;;;;;5.35;3.05;;;;;;;;;;3617112;39;20267;-55
2021/05/04 06:10:08;;;;;;;9.00;3.22;;;;;;;;;;3617498;39;20410;-56
2021/05/04 06:12:33;;;;;;;4.43;2.60;;;;;;;;;;3617163;39;20821;-56
2021/05/04 06:14:59;;;;;;;5.90;2.83;;;;;;;;;;3615602;39;20127;-56
2021/05/04 06:17:24;;;;;;;4.45;2.42;;;;;;;;;;3615285;39;20061;-56
2021/05/04 06:19:50;;;;;;;9.00;2.60;;;;;;;;;;3616469;39;20075;-55
2021/05/04 06:22:15;;;;;;;7.22;2.65;;;;;;;;;;3616687;39;20076;-56
2021/05/04 06:24:41;;;;;;;6.70;2.75;;;;;;;;;;3616058;39;20035;-56
2021/05/04 06:27:06;;;;;;;6.03;2.38;;;;;;;;;;3616916;39;20071;-56
2021/05/04 06:29:32;;;;;;;4.57;2.50;;;;;;;;;;3616882;39;20072;-56
2021/05/04 06:32:10;;;;;;;9.55;2.63;;;;;;;;;;3614919;39;20282;-56
2021/05/04 06:34:36;;;;;;;6.55;2.42;;;;;;;;;;3616807;39;20020;-57
2021/05/04 06:37:01;;;;;;;8.50;2.15;;;;;;;;;;3616877;39;20243;-56
2021/05/04 06:39:27;;;;;;;7.28;2.25;;;;;;;;;;3616496;39;20043;-57
2021/05/04 06:41:52;;;;;;;6.05;1.77;;;;;;;;;;3616217;39;20039;-57
2021/05/04 06:44:18;;;;;;;4.05;1.70;;;;;;;;;;3616690;39;20043;-58
2021/05/04 06:46:43;;;;;;;3.25;1.58;;;;;;;;;;3616573;39;20046;-57
2021/05/04 06:49:08;;;;;;;5.25;1.35;;;;;;;;;;3617053;39;20047;-57
2021/05/04 06:51:34;;;;;;;3.55;1.70;;;;;;;;;;3616340;39;20485;-56
2021/05/04 06:54:00;;;;;;;6.93;1.63;;;;;;;;;;3617076;39;20035;-55
2021/05/04 06:56:26;;;;;;;10.50;1.83;;;;;;;;;;3617536;39;20062;-55
2021/05/04 06:58:51;;;;;;;8.60;1.70;;;;;;;;;;3615768;39;20054;-57
2021/05/04 07:01:16;;;;;;;2.97;1.27;;;;;;;;;;3617112;39;20035;-56
2021/05/04 07:03:43;;;;;;;3.40;1.48;;;;;;;;;;3616996;39;20043;-55
2021/05/04 07:06:08;;;;;;;3.85;1.33;;;;;;;;;;3617189;39;20043;-53
2021/05/04 07:08:33;;;;;;;4.57;1.75;;;;;;;;;;3615990;39;20054;-56
2021/05/04 07:10:59;;;;;;;5.97;1.77;;;;;;;;;;3617170;39;20034;-54
2021/05/04 07:13:24;;;;;;;8.20;1.73;;;;;;;;;;3616889;39;20317;-55
2021/05/04 07:15:49;;;;;;;4.28;1.95;;;;;;;;;;3607680;39;20031;-55
2021/05/04 07:18:16;;;;;;;6.53;1.30;;;;;;;;;;3616499;39;20058;-55
2021/05/04 07:20:41;;;;;;;9.55;1.58;;;;;;;;;;3616391;39;20458;-56
2021/05/04 07:23:11;;;;;;;4.57;1.50;;;;;;;;;;3615952;39;20055;-54
2021/05/04 07:25:38;;;;;;;6.45;1.52;;;;;;;;;;3616053;39;20035;-55
2021/05/04 07:28:04;;;;;;;4.65;1.23;;;;;;;;;;3617672;39;20024;-55
2021/05/04 07:30:33;;;;;;;4.55;1.40;;;;;;;;;;3616885;39;20374;-55
2021/05/04 07:32:59;;;;;;;8.88;1.90;;;;;;;;;;3616579;39;20402;-56
2021/05/04 07:35:26;;;;;;;4.25;1.67;;;;;;;;;;3616689;39;20042;-55
2021/05/04 07:37:51;;;;;;;3.20;1.75;;;;;;;;;;3616520;39;20366;-57
2021/05/04 07:40:17;;;;;;;4.82;1.55;;;;;;;;;;3616876;39;20031;-52
2021/05/04 07:42:43;;;;;;;2.85;1.40;;;;;;;;;;3616346;39;20081;-54
2021/05/04 07:45:09;;;;;;;7.50;1.30;;;;;;;;;;3616761;39;20476;-55
2021/05/04 07:47:34;;;;;;;16.02;1.90;;;;;;;;;;3607613;39;20448;-54
2021/05/04 07:50:00;;;;;;;4.47;1.45;;;;;;;;;;3616036;39;20043;-56
2021/05/04 07:52:25;;;;;;;10.30;2.40;;;;;;;;;;3616607;39;20047;-58
2021/05/04 07:54:54;;;;;;;7.40;1.42;;;;;;;;;;3616078;39;20342;-58
2021/05/04 07:57:20;;;;;;;7.10;1.33;;;;;;;;;;3611792;39;20298;-59
2021/05/04 07:59:46;;;;;;;3.03;1.50;;;;;;;;;;3616150;39;20035;-59
2021/05/04 08:02:12;;;;;;;5.85;1.55;;;;;;;;;;3616493;39;20112;-59
2021/05/04 08:04:37;;;;;;;2.45;1.30;;;;;;;;;;3616868;39;20112;-59
2021/05/04 08:07:07;;;;;;;4.10;1.40;;;;;;;;;;3615122;39;20027;-58
2021/05/04 08:09:33;;;;;;;3.08;1.60;;;;;;;;;;3616445;39;20169;-58
2021/05/04 08:11:58;;;;;;;4.07;1.58;;;;;;;;;;3615690;39;20354;-57
2021/05/04 08:14:24;;;;;;;7.93;1.55;;;;;;;;;;3616352;39;20028;-59
2021/05/04 08:16:54;;;;;;;3.50;1.50;;;;;;;;;;3616086;39;20032;-57
2021/05/04 08:19:20;;;;;;;2.80;1.70;;;;;;;;;;3616454;39;20381;-58
2021/05/04 08:21:45;;;;;;;3.28;1.50;;;;;;;;;;3616028;39;20031;-59
2021/05/04 08:24:11;;;;;;;3.80;1.55;;;;;;;;;;3616223;39;20101;-59
2021/05/04 08:26:41;;;;;;;2.40;1.20;;;;;;;;;;3616128;39;20071;-58
2021/05/04 08:29:07;;;;;;;2.90;1.30;;;;;;;;;;3616094;39;20120;-58
2021/05/04 08:31:34;;;;;;;2.58;1.23;;;;;;;;;;3615850;39;20207;-58
2021/05/04 08:33:59;;;;;;;2.85;1.50;;;;;;;;;;3614775;39;20035;-57
2021/05/04 08:36:25;;;;;;;2.75;1.38;;;;;;;;;;3616534;39;20027;-58
2021/05/04 08:38:51;;;;;;;8.43;1.42;;;;;;;;;;3616215;39;20039;-57
2021/05/04 08:41:17;;;;;;;3.60;1.48;;;;;;;;;;3616373;39;20436;-59
2021/05/04 08:43:47;;;;;;;2.78;1.25;;;;;;;;;;3616062;39;20055;-59
2021/05/04 08:46:14;;;;;;;3.08;1.50;;;;;;;;;;3616072;39;20039;-58
2021/05/04 08:48:44;;;;;;;2.42;1.15;;;;;;;;;;3615570;39;20055;-59
2021/05/04 08:51:11;;;;;;;5.45;1.45;;;;;;;;;;3617187;39;20401;-58
2021/05/04 08:53:38;;;;;;;2.38;1.23;;;;;;;;;;3616997;39;20024;-57
2021/05/04 08:56:03;;;;;;;4.93;1.65;;;;;;;;;;3617435;39;20035;-60
2021/05/04 08:58:31;;;;;;;3.33;1.42;;;;;;;;;;3616240;39;20035;-59
2021/05/04 09:00:57;;;;;;;2.72;1.45;;;;;;;;;;3617634;39;20039;-58
2021/05/04 09:03:33;;;;;;;6.68;1.27;;;;;;;;;;3617040;39;20412;-60
2021/05/04 09:06:03;;;;;;;2.55;1.10;;;;;;;;;;3617746;39;20027;-58
2021/05/04 09:08:37;;;;;;;2.90;0.95;;;;;;;;;;3617607;39;20053;-59
2021/05/04 09:14:11;;;;;;;3.15;1.20;;;;;;;;;;3617226;39;20038;-60
2021/05/04 09:22:10;;;;;;;2.70;1.40;;;;;;;;;;3574732;40;20418;-59
2021/05/04 09:24:41;;;;;;;4.80;1.92;;;;;;;;;;3574205;40;20043;-57
2021/05/04 09:27:15;;;;;;;7.07;1.48;;;;;;;;;;3595614;39;20035;-59
2021/05/04 09:29:51;;;;;;;2.53;1.17;;;;;;;;;;3617187;39;20035;-60
2021/05/04 09:32:21;;;;;;;5.10;2.58;;;;;;;;;;3616011;39;20115;-59
2021/05/04 09:34:50;;;;;;;3.10;1.40;;;;;;;;;;3614644;39;20051;-58
2021/05/04 09:37:44;;;;;;;2.85;1.33;;;;;;;;;;3616520;39;20264;-58
2021/05/04 09:40:18;;;;;;;5.10;2.75;;;;;;;;;;3614264;39;20063;-58
2021/05/04 09:42:45;;;;;;;4.28;1.52;;;;;;;;;;3616853;39;20039;-58
2021/05/04 09:45:25;;;;;;;5.35;2.50;;;;;;;;;;3617205;39;20043;-59
2021/05/04 09:48:10;;;;;;;2.45;1.00;;;;;;;;;;3616325;39;20031;-59
2021/05/04 09:50:52;;;;;;;4.60;1.63;;;;;;;;;;3616926;39;20037;-59
2021/05/04 09:53:39;;;;;;;5.80;1.85;;;;;;;;;;3607272;39;20601;-60
2021/05/04 09:56:05;;;;;;;2.70;1.45;;;;;;;;;;3616123;39;20062;-59
2021/05/04 09:58:32;;;;;;;2.22;1.17;;;;;;;;;;3616718;39;20043;-60
2021/05/04 10:00:58;;;;;;;2.47;1.35;;;;;;;;;;3616963;39;20377;-59
2021/05/04 10:03:24;;;;;;;2.70;1.30;;;;;;;;;;3615041;39;20047;-60
2021/05/04 10:05:50;;;;;;;2.92;1.38;;;;;;;;;;3616888;39;20043;-59
2021/05/04 10:08:16;;;;;;;2.95;1.38;;;;;;;;;;3617152;39;20371;-60
2021/05/04 10:10:42;;;;;;;2.08;1.15;;;;;;;;;;3616545;39;20355;-53
2021/05/04 10:13:08;;;;;;;4.20;1.30;;;;;;;;;;3617329;39;20049;-60
2021/05/04 10:15:34;;;;;;;4.55;1.60;;;;;;;;;;3616024;39;20274;-60
2021/05/04 10:18:00;;;;;;;5.97;1.55;;;;;;;;;;3616577;39;20034;-60
2021/05/04 10:20:27;;;;;;;2.78;1.48;;;;;;;;;;3616902;39;20027;-60
2021/05/04 10:22:53;;;;;;;3.08;1.33;;;;;;;;;;3616738;39;20027;-60
2021/05/04 10:25:20;;;;;;;6.88;1.60;;;;;;;;;;3617294;39;20038;-59
2021/05/04 10:27:50;;;;;;;3.20;1.30;;;;;;;;;;3617167;39;20270;-58
2021/05/04 10:30:18;;;;;;;3.13;1.50;;;;;;;;;;3616897;39;20057;-59
2021/05/04 10:33:02;;;;;;;5.13;1.63;;;;;;;;;;3616621;39;20039;-59
2021/05/04 10:35:31;;;;;;;7.05;1.60;;;;;;;;;;3616443;39;20050;-60
2021/05/04 10:37:58;;;;;;;6.25;1.80;;;;;;;;;;3616644;39;20042;-60
2021/05/04 10:40:33;;;;;;;2.42;1.30;;;;;;;;;;3616746;39;20481;-59
2021/05/04 10:42:58;;;;;;;3.28;1.45;;;;;;;;;;3616751;39;20063;-59
2021/05/04 10:45:41;;;;;;;3.17;1.73;;;;;;;;;;3616797;39;20046;-59
2021/05/04 10:48:09;;;;;;;3.55;1.75;;;;;;;;;;3616650;39;20374;-59
2021/05/04 10:51:01;;;;;;;3.13;1.67;;;;;;;;;;3616628;39;20031;-58
2021/05/04 10:53:46;;;;;;;3.47;1.83;;;;;;;;;;3613822;39;20027;-58
2021/05/04 10:56:13;;;;;;;3.53;2.22;;;;;;;;;;3617003;39;20069;-58
2021/05/04 10:58:47;;;;;;;3.30;1.70;;;;;;;;;;3616307;39;20366;-58
2021/05/04 11:01:17;;;;;;;4.95;1.88;;;;;;;;;;3615611;39;20031;-57
2021/05/04 11:03:51;;;;;;;2.70;1.53;;;;;;;;;;3616375;39;20051;-59
2021/05/04 11:06:22;;;;;;;3.58;1.63;;;;;;;;;;3615423;39;20297;-59
2021/05/04 11:08:50;;;;;;;;;;;;;;;;;;3617497;39;20440;-59
2021/05/04 11:11:47;;;;;;;4.53;1.50;;;;;;;;;;3615657;39;20239;-58
2021/05/04 11:14:15;;;;;;;4.47;1.25;;;;;;;;;;3616152;39;20062;-59
2021/05/04 11:16:45;;;;;;;3.35;1.65;;;;;;;;;;3616549;39;20053;-59
2021/05/04 11:19:29;;;;;;;2.60;1.30;;;;;;;;;;3616240;39;20143;-60
2021/05/04 11:21:57;;;;;;;2.78;1.30;;;;;;;;;;3616471;39;20046;-59
2021/05/04 11:24:29;;;;;;;2.38;1.20;;;;;;;;;;3616753;39;20385;-59
2021/05/04 11:26:57;;;;;;;2.33;1.20;;;;;;;;;;3615375;39;20050;-59
2021/05/04 11:29:45;;;;;;;4.88;2.10;;;;;;;;;;3616370;39;20039;-58
2021/05/04 11:32:14;;;;;;;3.95;1.58;;;;;;;;;;3615326;39;20039;-58
2021/05/04 11:34:45;;;;;;;4.63;1.60;;;;;;;;;;3617160;39;20035;-57
2021/05/04 11:37:20;;;;;;;3.55;1.35;;;;;;;;;;3616428;39;20375;-60
2021/05/04 11:39:58;;;;;;;3.15;1.45;;;;;;;;;;3616983;39;20054;-59
2021/05/04 11:43:02;;;;;;;3.40;1.30;;;;;;;;;;3615852;39;20047;-59
2021/05/04 11:45:32;;;;;;;3.33;1.40;;;;;;;;;;3606336;39;20035;-59
2021/05/04 11:48:03;;;;;;;3.20;1.52;;;;;;;;;;3616159;39;20320;-59
2021/05/04 11:50:33;;;;;;;2.60;1.30;;;;;;;;;;3616934;39;20050;-59
2021/05/04 11:53:09;;;;;;;3.67;1.60;;;;;;;;;;3615706;39;20079;-60
2021/05/04 11:55:43;;;;;;;2.80;1.23;;;;;;;;;;3616634;39;20057;-59
2021/05/04 11:58:17;;;;;;;4.05;1.42;;;;;;;;;;3616742;39;20062;-59
2021/05/04 12:00:42;;;;;;;3.05;1.58;;;;;;;;;;3616703;39;20031;-59
2021/05/04 12:03:10;;;;;;;3.50;1.42;;;;;;;;;;3616267;39;20131;-60
2021/05/04 12:05:37;;;;;;;2.08;1.20;;;;;;;;;;3615999;39;20039;-60
2021/05/04 12:08:04;;;;;;;6.05;2.10;;;;;;;;;;3616048;39;20035;-59
2021/05/04 12:10:48;;;;;;;1.88;1.00;;;;;;;;;;3614914;39;20035;-59
2021/05/04 12:13:15;;;;;;;3.05;1.55;;;;;;;;;;3613382;39;20071;-59
2021/05/04 12:15:44;;;;;;;4.82;1.38;;;;;;;;;;3615157;39;20386;-59
2021/05/04 12:18:13;;;;;;;2.90;1.20;;;;;;;;;;3615891;39;20063;-59
2021/05/04 12:20:40;;;;;;;4.35;1.50;;;;;;;;;;3606641;39;20047;-60
2021/05/04 12:23:08;;;;;;;3.72;1.40;;;;;;;;;;3615141;39;20043;-59
2021/05/04 12:26:03;;;;;;;4.50;1.30;;;;;;;;;;3617576;39;20031;-59
2021/05/04 12:28:31;;;;;;;5.00;1.13;;;;;;;;;;3618561;39;20055;-59
2021/05/04 12:31:04;;;;;;;3.65;1.27;;;;;;;;;;3619181;39;20039;-60
2021/05/04 12:33:29;;;;;;;2.80;1.25;;;;;;;;;;3614219;39;20075;-58
2021/05/04 12:36:01;;;;;;;3.17;1.50;;;;;;;;;;3615321;39;21601;-58
2021/05/04 12:38:38;;;;;;;3.08;1.25;;;;;;;;;;3613892;39;20128;-57
2021/05/04 12:41:08;;;;;;;2.63;1.25;;;;;;;;;;3617532;39;20036;-58
2021/05/04 12:43:39;;;;;;;6.17;1.20;;;;;;;;;;3618419;39;20039;-58
2021/05/04 12:46:16;;;;;;;2.88;1.23;;;;;;;;;;3619513;39;20472;-60
2021/05/04 12:48:42;;;;;;;2.75;1.25;;;;;;;;;;3618365;39;20043;-56
2021/05/04 12:51:14;;;;;;;8.20;1.50;;;;;;;;;;3618980;39;20132;-59
2021/05/04 12:53:44;;;;;;;2.97;1.20;;;;;;;;;;3617892;39;20151;-59
2021/05/04 12:56:15;;;;;;;3.17;1.40;;;;;;;;;;3618523;39;20488;-60
2021/05/04 12:58:57;;;;;;;4.03;1.27;;;;;;;;;;3616462;39;20096;-58
2021/05/04 13:01:43;;;;;;;3.65;1.30;;;;;;;;;;3616366;39;20278;-59
2021/05/04 13:04:16;;;;;;;3.97;1.48;;;;;;;;;;3618916;39;20043;-58
2021/05/04 13:06:49;;;;;;;2.63;1.45;;;;;;;;;;3619473;39;20034;-60
2021/05/04 13:09:28;;;;;;;2.33;1.23;;;;;;;;;;3619367;39;20047;-59
2021/05/04 13:30:48;;;;;;;4.00;1.35;;;;;;;;;;3618533;39;20083;-58
2021/05/04 13:33:15;;;;;;;2.83;1.30;;;;;;;;;;3619000;39;20034;-58
2021/05/04 13:36:01;;;;;;;2.67;1.42;;;;;;;;;;3614757;39;20119;-58
2021/05/04 13:49:21;;;;;;;5.45;1.50;;;;;;;;;;3615686;39;20040;-58
2021/05/04 13:51:47;;;;;;;4.95;1.63;;;;;;;;;;3607485;39;20082;-58
2021/05/04 13:54:12;;;;;;;5.35;1.20;;;;;;;;;;3617534;39;20042;-59
2021/05/04 13:56:38;;;;;;;4.25;1.48;;;;;;;;;;3617335;39;20063;-58
2021/05/04 13:59:03;;;;;;;10.02;2.10;;;;;;;;;;3617441;39;20051;-59
2021/05/04 14:01:36;;;;;;;5.75;1.60;;;;;;;;;;3616633;39;20034;-58
2021/05/04 14:15:06;;;;;;;4.00;1.52;;;;;;;;;;3617400;39;20382;-58
2021/05/04 14:27:51;;;;;;;3.67;1.17;;;;;;;;;;3616289;39;20027;-59
2021/05/04 14:30:17;;;;;;;3.63;1.30;;;;;;;;;;3614330;39;20073;-59
2021/05/04 14:32:43;;;;;;;2.90;1.38;;;;;;;;;;3616309;39;20023;-58
2021/05/04 14:35:16;;;;;;;3.10;1.38;;;;;;;;;;3617329;39;20047;-59
2021/05/04 14:43:28;;;;;;;3.03;1.30;;;;;;;;;;3617002;39;20266;-59
2021/05/04 14:59:16;;;;;;;3.20;1.23;;;;;;;;;;3616669;39;20050;-57
2021/05/04 15:01:45;;;;;;;2.75;1.20;;;;;;;;;;3616481;39;20062;-58
2021/05/04 15:04:12;;;;;;;3.10;1.20;;;;;;;;;;3617659;39;20063;-56
2021/05/04 15:06:37;;;;;;;3.67;1.40;;;;;;;;;;3617160;39;20027;-55
2021/05/04 15:09:06;;;;;;;3.25;0.93;;;;;;;;;;3616994;39;20038;-58
2021/05/04 15:11:32;;;;;;;2.85;1.20;;;;;;;;;;3616381;39;20054;-58
2021/05/04 15:17:53;;;;;;;3.33;1.00;;;;;;;;;;3615497;39;20131;-60
2021/05/04 15:23:03;;;;;;;4.15;0.98;;;;;;;;;;3616971;39;20058;-60
2021/05/04 15:25:28;;;;;;;2.53;1.00;;;;;;;;;;3616920;39;20023;-61
2021/05/04 15:27:54;;;;;;;2.33;0.90;;;;;;;;;;3616762;39;20067;-61
2021/05/04 15:30:20;;;;;;;3.90;1.42;;;;;;;;;;3616681;39;20027;-61
2021/05/04 15:35:15;;;;;;;2.67;0.93;;;;;;;;;;3616846;39;20278;-61
2021/05/04 15:37:41;;;;;;;3.40;0.73;;;;;;;;;;3614278;39;20046;-61
2021/05/04 15:40:07;;;;;;;2.63;0.85;;;;;;;;;;3613470;39;20089;-61
2021/05/04 15:42:33;;;;;;;2.08;0.75;;;;;;;;;;3614849;39;20043;-61
2021/05/04 15:45:00;;;;;;;3.53;0.98;;;;;;;;;;3614577;39;20120;-61
2021/05/04 15:50:00;;;;;;;2.78;0.88;;;;;;;;;;3616589;39;20333;-61
2021/05/04 15:53:22;;;;;;;;;;;;;;;;;;3617336;39;20114;-61
2021/05/04 16:00:50;;;;;;;3.38;0.73;;;;;;;;;;3616545;39;20031;-62
2021/05/04 16:03:22;;;;;;;1.90;0.70;;;;;;;;;;3615607;39;20108;-61
2021/05/04 16:08:39;;;;;;;3.47;0.73;;;;;;;;;;3615119;39;20027;-61
2021/05/04 16:11:04;;;;;;;3.42;0.77;;;;;;;;;;3614710;39;20038;-61
2021/05/04 16:13:30;;;;;;;5.07;0.90;;;;;;;;;;3616523;39;20027;-60
2021/05/04 16:15:55;;;;;;;2.80;1.00;;;;;;;;;;3617136;39;20027;-61
2021/05/04 16:18:21;;;;;;;2.78;1.17;;;;;;;;;;3616095;39;20038;-60
2021/05/04 16:29:28;;;;;;;3.30;0.88;;;;;;;;;;3616334;39;20324;-61
2021/05/04 16:31:16;;;;;;;6.22;1.13;;;;;;;;;;3602724;39;20350;-61
2021/05/04 16:33:41;;;;;;;3.45;1.20;;;;;;;;;;3616537;39;20038;-61